Time;durP1;ratioP1;P1;durP2;ratioP2;P2;SDS_P1;SDS_P2;PMS_P1;PMS_P2;Temp;Humidity;BMP_temperature;BMP_pressure;BME280_temperature;BME280_humidity;BME280_pressure;Samples;Min_cycle;Max_cycle;Signal;HPM_P1;HPM_P2
2022/11/16 00:03:51;;;;;;;104.27;20.60;;;;;6.70;95204.00;;;;8297417;28;20225;-79
2022/11/16 00:08:28;;;;;;;148.47;22.80;;;;;6.60;95195.00;;;;8295747;28;20587;-79
2022/11/16 00:12:33;;;;;;;188.37;22.13;;;;;6.60;95191.00;;;;8297415;28;20281;-79
2022/11/16 00:17:06;;;;;;;193.47;24.00;;;;;6.60;95191.00;;;;8296765;28;20550;-79
2022/11/16 00:21:10;;;;;;;187.00;22.53;;;;;6.50;95174.00;;;;8296455;28;20228;-78
2022/11/16 00:25:13;;;;;;;337.93;27.23;;;;;6.40;95170.00;;;;8297101;28;20261;-79
2022/11/16 00:29:49;;;;;;;209.27;20.53;;;;;6.40;95168.00;;;;8296601;28;20218;-79
2022/11/16 00:33:52;;;;;;;341.80;24.77;;;;;6.40;95181.00;;;;8295989;28;20210;-79
2022/11/16 00:37:55;;;;;;;407.80;28.50;;;;;6.40;95184.00;;;;8297087;28;20536;-79
2022/11/16 00:41:58;;;;;;;283.17;22.37;;;;;6.50;95178.00;;;;8295887;28;20226;-79
2022/11/16 00:46:03;;;;;;;366.37;25.87;;;;;6.50;95181.00;;;;8296820;28;20229;-78
2022/11/16 00:50:38;;;;;;;361.17;26.50;;;;;6.50;95181.00;;;;8294186;28;20220;-79
2022/11/16 00:54:41;;;;;;;186.70;18.57;;;;;6.50;95162.00;;;;8295573;28;20229;-79
2022/11/16 00:58:44;;;;;;;401.53;27.00;;;;;6.50;95154.00;;;;8284952;28;20232;-79
2022/11/16 01:02:48;;;;;;;340.53;23.77;;;;;6.50;95146.00;;;;8295352;28;20269;-80
2022/11/16 01:06:51;;;;;;;367.13;24.50;;;;;6.50;95150.00;;;;8295609;28;20240;-81
2022/11/16 01:10:54;;;;;;;304.13;21.57;;;;;6.50;95143.00;;;;8295812;28;20244;-81
2022/11/16 01:14:58;;;;;;;470.53;30.57;;;;;6.50;95140.00;;;;8295457;28;20275;-81
2022/11/16 01:19:03;;;;;;;619.33;38.53;;;;;6.50;95130.00;;;;8294203;28;20239;-81
2022/11/16 01:23:07;;;;;;;317.30;22.87;;;;;6.50;95145.00;;;;8294825;28;20607;-81
2022/11/16 01:27:10;;;;;;;379.47;26.10;;;;;6.50;95142.00;;;;8295105;28;20655;-80
2022/11/16 01:31:46;;;;;;;288.47;22.60;;;;;6.50;95125.00;;;;8295012;28;20277;-80
2022/11/16 01:35:51;;;;;;;411.83;27.30;;;;;6.50;95126.00;;;;8295496;28;20218;-81
2022/11/16 01:39:54;;;;;;;337.40;24.30;;;;;6.60;95125.00;;;;8295506;28;20240;-80
2022/11/16 01:43:59;;;;;;;372.83;26.60;;;;;6.60;95132.00;;;;8294984;28;20227;-80
2022/11/16 01:48:33;;;;;;;536.73;31.43;;;;;6.70;95116.00;;;;8292909;28;20237;-79
2022/11/16 01:52:43;;;;;;;351.63;26.50;;;;;6.70;95119.00;;;;8294450;28;20229;-79
2022/11/16 01:56:49;;;;;;;322.10;24.43;;;;;6.80;95110.00;;;;8294770;28;20265;-80
2022/11/16 02:01:22;;;;;;;319.90;25.63;;;;;6.80;95101.00;;;;8294979;28;20280;-80
2022/11/16 02:05:33;;;;;;;314.17;23.63;;;;;6.80;95109.00;;;;8294263;28;20218;-79
2022/11/16 02:10:04;;;;;;;430.00;25.67;;;;;6.80;95103.00;;;;8294752;28;20563;-80
2022/11/16 02:14:20;;;;;;;402.87;25.53;;;;;6.70;95102.00;;;;8294747;28;22810;-80
2022/11/16 02:18:31;;;;;;;369.17;25.87;;;;;6.70;95098.00;;;;8293919;28;20222;-80
2022/11/16 02:23:08;;;;;;;262.50;23.93;;;;;6.70;95101.00;;;;8294504;28;20230;-80
2022/11/16 02:27:49;;;;;;;198.67;22.27;;;;;6.60;95095.00;;;;8295189;28;20221;-79
2022/11/16 02:32:01;;;;;;;190.77;22.77;;;;;6.70;95095.00;;;;8297572;28;20226;-80
2022/11/16 02:36:26;;;;;;;179.07;21.23;;;;;6.70;95093.00;;;;8299537;28;20230;-80
2022/11/16 02:40:33;;;;;;;396.50;26.63;;;;;6.70;95088.00;;;;8300579;28;20635;-79
2022/11/16 02:44:40;;;;;;;163.80;21.70;;;;;6.80;95089.00;;;;8300295;28;20571;-80
2022/11/16 02:48:48;;;;;;;341.10;25.13;;;;;6.80;95088.00;;;;8298678;28;20221;-79
2022/11/16 02:52:51;;;;;;;433.03;25.13;;;;;6.80;95092.00;;;;8299957;28;20225;-80
2022/11/16 02:56:57;;;;;;;583.60;35.17;;;;;6.80;95079.00;;;;8299596;28;20229;-79
2022/11/16 03:01:05;;;;;;;627.00;38.30;;;;;6.90;95055.00;;;;8299827;28;20563;-79
2022/11/16 03:05:16;;;;;;;516.67;29.17;;;;;6.90;95053.00;;;;8299765;28;20218;-79
2022/11/16 03:09:24;;;;;;;651.40;39.43;;;;;6.90;95054.00;;;;8299503;28;20667;-78
2022/11/16 03:13:33;;;;;;;633.63;36.27;;;;;6.90;95044.00;;;;8298499;28;20222;-78
2022/11/16 03:18:03;;;;;;;522.07;31.23;;;;;6.80;95051.00;;;;8299151;28;20246;-78
2022/11/16 03:22:14;;;;;;;729.47;39.87;;;;;6.80;95062.00;;;;8298589;28;20721;-78
2022/11/16 03:26:23;;;;;;;466.93;30.23;;;;;6.90;95065.00;;;;8299412;28;20288;-78
2022/11/16 03:30:57;;;;;;;502.97;31.27;;;;;6.90;95092.00;;;;8298376;28;20218;-79
2022/11/16 03:35:04;;;;;;;442.93;29.00;;;;;6.90;95103.00;;;;8297906;28;20232;-79
2022/11/16 03:39:14;;;;;;;337.40;26.50;;;;;6.90;95102.00;;;;8287107;28;20698;-78
2022/11/16 03:43:19;;;;;;;520.30;34.70;;;;;7.00;95082.00;;;;8297081;28;20606;-78
2022/11/16 03:47:53;;;;;;;608.00;37.97;;;;;7.00;95077.00;;;;8297369;28;20214;-78
2022/11/16 03:51:57;;;;;;;256.23;23.83;;;;;6.90;95082.00;;;;8287697;28;20643;-79
2022/11/16 03:56:02;;;;;;;513.93;33.67;;;;;6.90;95080.00;;;;8297575;28;20595;-77
2022/11/16 04:00:06;;;;;;;512.30;33.07;;;;;6.90;95064.00;;;;8293274;28;20643;-76
2022/11/16 04:28:13;;;;;;;514.27;31.17;;;;;6.80;95085.00;;;;8296732;28;20226;-76
2022/11/16 04:50:12;;;;;;;507.30;31.23;;;;;6.60;95081.00;;;;8296482;28;20559;-73
2022/11/16 04:54:49;;;;;;;301.17;24.70;;;;;6.60;95069.00;;;;8295148;28;20541;-72
2022/11/16 04:58:52;;;;;;;345.60;27.10;;;;;6.50;95067.00;;;;8286035;28;20572;-72
2022/11/16 05:02:55;;;;;;;230.60;22.23;;;;;6.50;95092.00;;;;8294566;28;20226;-73
2022/11/16 05:07:32;;;;;;;439.83;30.10;;;;;6.50;95123.00;;;;8295945;28;20345;-73
2022/11/16 05:12:06;;;;;;;343.40;27.23;;;;;6.60;95143.00;;;;8295125;28;20563;-72
2022/11/16 05:16:09;;;;;;;347.37;27.17;;;;;6.60;95152.00;;;;8295726;28;20214;-73
2022/11/16 05:21:00;;;;;;;486.77;31.33;;;;;6.60;95145.00;;;;8294919;28;20563;-75
2022/11/16 05:25:07;;;;;;;375.47;27.10;;;;;6.60;95154.00;;;;8295083;28;20229;-74
2022/11/16 05:29:11;;;;;;;429.10;28.33;;;;;6.70;95122.00;;;;8295123;28;20229;-74
2022/11/16 05:33:16;;;;;;;257.93;24.73;;;;;6.70;95121.00;;;;8295338;28;20214;-73
2022/11/16 05:37:50;;;;;;;269.90;24.67;;;;;6.80;95123.00;;;;8294604;28;20230;-72
2022/11/16 05:41:56;;;;;;;242.83;23.53;;;;;6.90;95116.00;;;;8295611;28;20677;-72
2022/11/16 05:46:30;;;;;;;133.87;20.00;;;;;6.90;95129.00;;;;8294991;28;20688;-73
2022/11/16 05:50:33;;;;;;;179.63;19.83;;;;;7.00;95127.00;;;;8294947;28;20222;-73
2022/11/16 05:54:43;;;;;;;150.97;19.10;;;;;7.00;95133.00;;;;8295017;28;20272;-74
2022/11/16 06:03:45;;;;;;;129.23;20.10;;;;;7.10;95137.00;;;;8293616;28;20233;-73
2022/11/16 06:07:48;;;;;;;109.60;18.13;;;;;7.00;95126.00;;;;8301774;28;20559;-74
2022/11/16 06:12:25;;;;;;;90.90;17.43;;;;;7.00;95125.00;;;;8300926;28;20222;-74
2022/11/16 06:16:28;;;;;;;75.43;16.43;;;;;7.00;95130.00;;;;8298110;28;20225;-74
2022/11/16 06:21:07;;;;;;;84.00;17.97;;;;;7.00;95134.00;;;;8300470;28;20663;-73
2022/11/16 06:25:12;;;;;;;84.37;15.80;;;;;7.00;95125.00;;;;8299625;28;20226;-74
2022/11/16 06:29:46;;;;;;;85.23;15.47;;;;;6.90;95124.00;;;;8299800;28;20225;-72
2022/11/16 06:34:24;;;;;;;102.77;17.13;;;;;6.90;95122.00;;;;8300211;28;20233;-74
2022/11/16 06:38:28;;;;;;;76.63;15.43;;;;;6.90;95120.00;;;;8299582;28;20229;-73
2022/11/16 06:42:32;;;;;;;60.20;14.90;;;;;6.90;95117.00;;;;8298595;28;20237;-74
2022/11/16 06:47:09;;;;;;;67.20;14.73;;;;;6.90;95121.00;;;;8300439;28;20222;-74
2022/11/16 06:51:12;;;;;;;58.40;14.07;;;;;6.90;95108.00;;;;8291709;28;20213;-73
2022/11/16 06:55:16;;;;;;;40.03;11.13;;;;;6.90;95112.00;;;;8300065;28;20612;-73
2022/11/16 06:59:19;;;;;;;51.53;12.17;;;;;6.90;95108.00;;;;8300261;28;20230;-73
2022/11/16 07:03:23;;;;;;;47.73;12.47;;;;;6.90;95104.00;;;;8299551;28;20256;-72
2022/11/16 07:07:26;;;;;;;41.27;12.00;;;;;6.80;95116.00;;;;8297723;28;20222;-74
2022/11/16 07:12:05;;;;;;;47.57;12.57;;;;;6.80;95107.00;;;;8293700;28;20226;-77
2022/11/16 07:16:39;;;;;;;50.37;12.77;;;;;6.90;95114.00;;;;8299423;28;20287;-72
2022/11/16 07:21:15;;;;;;;42.23;10.63;;;;;6.90;95107.00;;;;8298621;28;20226;-72
2022/11/16 07:25:18;;;;;;;49.90;11.90;;;;;6.80;95108.00;;;;8273271;28;20691;-72
2022/11/16 07:29:23;;;;;;;46.57;10.80;;;;;6.80;95108.00;;;;8265981;28;20222;-73
2022/11/16 07:43:56;;;;;;;23.93;7.73;;;;;6.70;95100.00;;;;8264838;28;20226;-72
2022/11/16 07:48:01;;;;;;;25.63;7.83;;;;;6.60;95103.00;;;;8266042;28;20219;-72
2022/11/16 07:52:04;;;;;;;27.43;8.67;;;;;6.60;95113.00;;;;8264467;28;20222;-73
2022/11/16 07:56:08;;;;;;;24.00;7.53;;;;;6.60;95137.00;;;;8264836;28;20218;-72
2022/11/16 08:00:12;;;;;;;42.40;16.57;;;;;6.70;95135.00;;;;8264370;28;20218;-75
2022/11/16 08:04:16;;;;;;;33.30;11.00;;;;;6.70;95138.00;;;;8265030;28;20230;-73
2022/11/16 08:08:20;;;;;;;35.70;12.77;;;;;6.80;95139.00;;;;8265187;28;20226;-74
2022/11/16 08:12:56;;;;;;;29.27;9.73;;;;;6.90;95137.00;;;;8265477;28;20289;-72
2022/11/16 08:17:00;;;;;;;24.73;10.07;;;;;6.90;95141.00;;;;8264524;28;20265;-74
2022/11/16 08:21:38;;;;;;;24.87;8.73;;;;;7.00;95139.00;;;;8264288;28;20214;-78
2022/11/16 08:25:41;;;;;;;34.30;9.30;;;;;7.10;95133.00;;;;8263876;28;20257;-76
2022/11/16 08:29:44;;;;;;;31.00;10.27;;;;;7.10;95131.00;;;;8263552;28;20343;-77
2022/11/16 08:33:47;;;;;;;40.07;11.17;;;;;7.20;95139.00;;;;8263722;28;20265;-77
2022/11/16 08:38:21;;;;;;;33.13;8.97;;;;;7.20;95136.00;;;;8262921;28;20222;-75
2022/11/16 08:42:26;;;;;;;33.00;11.93;;;;;7.30;95142.00;;;;8263362;28;20269;-76
2022/11/16 08:46:29;;;;;;;33.97;11.20;;;;;7.40;95146.00;;;;8263080;28;20230;-77
2022/11/16 08:51:04;;;;;;;25.73;8.47;;;;;7.40;95146.00;;;;8262951;28;20231;-76
2022/11/16 08:55:23;;;;;;;33.77;13.13;;;;;7.40;95165.00;;;;8262542;28;20215;-76
2022/11/16 09:00:02;;;;;;;34.37;9.27;;;;;7.40;95166.00;;;;8263369;28;20227;-75
2022/11/16 09:04:05;;;;;;;24.23;7.97;;;;;7.40;95172.00;;;;8262262;28;20632;-75
2022/11/16 09:08:41;;;;;;;24.10;9.23;;;;;7.40;95169.00;;;;8262988;28;20218;-75
2022/11/16 09:12:44;;;;;;;21.53;9.50;;;;;7.30;95173.00;;;;8262962;28;20222;-75
2022/11/16 09:17:22;;;;;;;17.83;7.33;;;;;7.40;95167.00;;;;8262390;28;20234;-75
2022/11/16 09:21:56;;;;;;;15.40;6.90;;;;;7.40;95182.00;;;;8261485;28;20230;-76
2022/11/16 09:26:01;;;;;;;15.53;7.07;;;;;7.40;95181.00;;;;8262188;28;20230;-77
2022/11/16 09:30:05;;;;;;;16.70;7.00;;;;;7.50;95164.00;;;;8261099;28;20642;-77
2022/11/16 09:34:41;;;;;;;21.90;6.43;;;;;7.60;95162.00;;;;8261697;28;20218;-77
2022/11/16 09:38:45;;;;;;;17.00;5.60;;;;;7.70;95167.00;;;;8258195;28;20285;-77
2022/11/16 09:43:36;;;;;;;10.77;5.57;;;;;7.80;95162.00;;;;8268875;28;20579;-77
2022/11/16 09:48:01;;;;;;;13.90;5.03;;;;;8.00;95165.00;;;;8268024;28;20306;-76
2022/11/16 09:52:12;;;;;;;12.40;5.03;;;;;8.10;95173.00;;;;8268497;28;20223;-74
2022/11/16 09:56:41;;;;;;;10.70;4.80;;;;;8.30;95170.00;;;;8268734;28;20269;-73
2022/11/16 10:01:20;;;;;;;9.53;5.00;;;;;8.40;95172.00;;;;8268349;28;20226;-73
2022/11/16 10:05:50;;;;;;;8.20;4.43;;;;;8.50;95160.00;;;;8267055;28;20246;-73
2022/11/16 10:10:32;;;;;;;8.53;3.80;;;;;8.50;95153.00;;;;8268103;28;20541;-73
2022/11/16 10:15:23;;;;;;;9.40;4.63;;;;;8.50;95148.00;;;;8268183;28;20249;-72
2022/11/16 10:19:37;;;;;;;8.57;4.40;;;;;8.50;95152.00;;;;8182273;28;20223;-72
2022/11/16 10:24:20;;;;;;;4.63;3.53;;;;;8.50;95151.00;;;;8266933;28;20258;-72
2022/11/16 10:29:09;;;;;;;10.00;6.20;;;;;8.40;95147.00;;;;8262006;28;20230;-73
2022/11/16 10:33:19;;;;;;;9.50;4.93;;;;;8.50;95138.00;;;;8267118;28;20603;-73
2022/11/16 10:37:49;;;;;;;10.60;5.00;;;;;8.50;95140.00;;;;8267492;28;20219;-73
2022/11/16 10:41:52;;;;;;;9.70;4.80;;;;;8.60;95138.00;;;;8267299;28;20214;-72
2022/11/16 10:46:00;;;;;;;8.60;4.43;;;;;8.70;95124.00;;;;8267261;28;20223;-72
2022/11/16 10:50:35;;;;;;;10.03;4.43;;;;;8.70;95129.00;;;;8266472;28;20560;-72
2022/11/16 10:54:39;;;;;;;8.67;4.10;;;;;8.70;95132.00;;;;8267044;28;20277;-72
2022/11/16 11:03:44;;;;;;;6.68;4.50;;;;;8.70;95127.00;;;;8264998;28;20261;-74
2022/11/16 11:08:29;;;;;;;10.57;4.82;;;;;8.70;95130.00;;;;8266567;28;20230;-76
2022/11/16 11:12:38;;;;;;;11.47;4.90;;;;;8.70;95127.00;;;;8265657;28;20624;-76
2022/11/16 11:16:42;;;;;;;11.30;4.40;;;;;8.70;95120.00;;;;8265458;28;20226;-75
2022/11/16 11:20:47;;;;;;;9.10;4.77;;;;;8.70;95119.00;;;;8265983;28;20668;-75
2022/11/16 11:25:28;;;;;;;8.43;4.77;;;;;8.70;95114.00;;;;8266455;28;20281;-75
2022/11/16 11:29:34;;;;;;;8.75;4.38;;;;;8.70;95113.00;;;;8265648;28;20226;-75
2022/11/16 11:33:42;;;;;;;12.23;5.40;;;;;8.90;95123.00;;;;8266531;28;20214;-75
2022/11/16 11:38:14;;;;;;;10.10;5.00;;;;;8.90;95126.00;;;;8265347;28;20620;-77
2022/11/16 11:42:23;;;;;;;11.18;5.05;;;;;8.90;95116.00;;;;8264515;28;20222;-74
2022/11/16 11:47:02;;;;;;;13.43;5.90;;;;;9.10;95117.00;;;;8265492;28;20222;-75
2022/11/16 11:51:32;;;;;;;11.40;5.53;;;;;9.20;95119.00;;;;8266227;28;20226;-76
2022/11/16 11:55:59;;;;;;;14.57;5.90;;;;;9.10;95110.00;;;;8264469;28;20223;-75
2022/11/16 12:00:08;;;;;;;15.07;6.45;;;;;9.20;95101.00;;;;8264590;28;20226;-75
2022/11/16 12:04:53;;;;;;;15.40;6.40;;;;;9.30;95101.00;;;;8248070;28;20233;-74
2022/11/16 12:09:33;;;;;;;16.63;7.47;;;;;9.40;95095.00;;;;8259990;28;20222;-77
2022/11/16 12:14:04;;;;;;;17.33;7.80;;;;;9.60;95092.00;;;;8101324;29;20229;-77
2022/11/16 12:18:24;;;;;;;17.07;7.90;;;;;9.90;95086.00;;;;8198064;28;20230;-77
2022/11/16 12:22:43;;;;;;;17.00;9.38;;;;;10.00;95085.00;;;;8263633;28;20226;-78
2022/11/16 12:27:16;;;;;;;1150.95;420.30;;;;;10.10;95092.00;;;;8263375;28;20223;-79
2022/11/16 12:31:50;;;;;;;1999.90;899.30;;;;;10.20;95078.00;;;;8263630;28;20846;-81
2022/11/16 12:36:02;;;;;;;314.13;135.07;;;;;10.20;95084.00;;;;8264046;28;20230;-83
2022/11/16 12:40:26;;;;;;;64.93;28.63;;;;;10.40;95078.00;;;;8263365;28;20219;-83
2022/11/16 12:44:39;;;;;;;93.68;41.78;;;;;10.60;95083.00;;;;8263497;28;20315;-84
2022/11/16 12:49:21;;;;;;;1215.45;507.65;;;;;10.70;95083.00;;;;8263626;28;20223;-87
2022/11/16 12:54:06;;;;;;;556.42;217.82;;;;;10.50;95091.00;;;;8263494;28;20573;-90
2022/11/16 12:58:25;;;;;;;741.58;228.65;;;;;10.40;95091.00;;;;8163034;29;20229;-91
2022/11/16 13:07:50;;;;;;;92.30;33.88;;;;;10.70;95097.00;;;;8261713;28;20230;-78
2022/11/16 13:12:23;;;;;;;498.08;165.45;;;;;10.70;95092.00;;;;8261872;28;20238;-78
2022/11/16 13:16:27;;;;;;;642.63;227.73;;;;;10.60;95093.00;;;;8263086;28;20271;-78
2022/11/16 13:21:04;;;;;;;1999.90;747.08;;;;;10.60;95088.00;;;;8262168;28;20230;-78
2022/11/16 13:25:16;;;;;;;572.03;236.23;;;;;10.60;95092.00;;;;8261827;28;20223;-77
2022/11/16 13:29:48;;;;;;;201.63;76.60;;;;;10.70;95099.00;;;;8260915;28;20648;-77
2022/11/16 13:34:21;;;;;;;59.28;25.05;;;;;10.80;95098.00;;;;8262864;28;20227;-77
2022/11/16 13:38:52;;;;;;;133.95;84.28;;;;;10.90;95093.00;;;;8261175;28;20296;-79
2022/11/16 13:43:08;;;;;;;34.65;19.85;;;;;10.90;95085.00;;;;8261388;28;20231;-79
2022/11/16 13:47:27;;;;;;;45.80;23.88;;;;;11.00;95089.00;;;;8262109;28;20244;-79
2022/11/16 13:51:30;;;;;;;387.05;184.35;;;;;10.90;95088.00;;;;8259407;28;20237;-78
2022/11/16 13:55:35;;;;;;;368.48;131.45;;;;;10.90;95085.00;;;;8262528;28;20257;-78
2022/11/16 13:59:39;;;;;;;255.32;90.38;;;;;10.90;95087.00;;;;8261996;28;20219;-78
2022/11/16 14:04:33;;;;;;;930.03;475.80;;;;;11.00;95073.00;;;;8262079;28;20224;-79
2022/11/16 14:08:48;;;;;;;322.38;155.30;;;;;11.00;95066.00;;;;8258163;28;20572;-79
2022/11/16 14:13:37;;;;;;;543.63;195.85;;;;;11.00;95058.00;;;;8261837;28;20247;-78
2022/11/16 14:17:51;;;;;;;124.30;54.28;;;;;11.00;95062.00;;;;8216393;28;20215;-79
2022/11/16 14:22:03;;;;;;;160.02;84.30;;;;;11.10;95048.00;;;;8261864;28;20637;-77
2022/11/16 14:26:13;;;;;;;49.45;25.10;;;;;11.10;95053.00;;;;8262901;28;20599;-77
2022/11/16 14:30:21;;;;;;;102.47;57.50;;;;;11.10;95043.00;;;;8268095;28;20230;-78
2022/11/16 14:34:30;;;;;;;66.65;36.70;;;;;11.00;95039.00;;;;8267130;28;20221;-78
2022/11/16 14:38:38;;;;;;;47.47;23.92;;;;;11.00;95029.00;;;;8267050;28;20226;-78
2022/11/16 14:42:48;;;;;;;282.50;133.00;;;;;10.80;95026.00;;;;8267718;28;20272;-78
2022/11/16 14:47:23;;;;;;;878.00;445.05;;;;;10.70;95026.00;;;;8267918;28;20234;-78
2022/11/16 14:51:30;;;;;;;108.10;54.38;;;;;10.70;95035.00;;;;8266772;28;20215;-78
2022/11/16 14:55:41;;;;;;;42.45;23.63;;;;;10.80;95019.00;;;;8267544;28;20234;-79
2022/11/16 14:59:44;;;;;;;44.25;22.92;;;;;10.80;95022.00;;;;8266525;28;20223;-78
2022/11/16 15:03:53;;;;;;;164.80;83.28;;;;;10.70;95024.00;;;;8266703;28;20219;-79
2022/11/16 15:08:32;;;;;;;106.80;55.55;;;;;10.60;95021.00;;;;8266072;28;20655;-78
2022/11/16 15:12:42;;;;;;;63.42;35.00;;;;;10.60;95027.00;;;;8266225;28;20671;-78
2022/11/16 15:16:50;;;;;;;38.35;20.92;;;;;10.60;95032.00;;;;8261873;28;20277;-78
2022/11/16 15:20:54;;;;;;;106.53;77.60;;;;;10.50;95043.00;;;;8263403;28;20307;-78
2022/11/16 15:24:58;;;;;;;302.77;269.85;;;;;10.50;95026.00;;;;8265434;28;20234;-78
2022/11/16 15:29:34;;;;;;;75.70;60.38;;;;;10.40;95033.00;;;;8266025;28;20642;-78
2022/11/16 15:33:41;;;;;;;42.17;20.50;;;;;10.40;95043.00;;;;8265000;28;20223;-78
2022/11/16 15:37:44;;;;;;;155.73;125.70;;;;;10.40;95038.00;;;;8261849;28;20646;-78
2022/11/16 15:42:21;;;;;;;46.58;30.55;;;;;10.30;95044.00;;;;8265358;28;20234;-78
2022/11/16 15:46:27;;;;;;;37.35;15.75;;;;;10.40;95043.00;;;;8263962;28;20224;-78
2022/11/16 15:50:31;;;;;;;35.63;16.00;;;;;10.40;95049.00;;;;8261373;28;20735;-81
2022/11/16 15:55:02;;;;;;;40.97;16.52;;;;;10.40;95049.00;;;;8265907;28;20313;-81
2022/11/16 15:59:13;;;;;;;72.10;35.33;;;;;10.30;95042.00;;;;8263970;28;20569;-81
2022/11/16 16:03:51;;;;;;;55.33;22.85;;;;;10.30;95028.00;;;;8263059;28;20214;-81
2022/11/16 16:08:26;;;;;;;57.00;21.20;;;;;10.30;95029.00;;;;8263950;28;20661;-81
2022/11/16 16:12:59;;;;;;;56.83;19.85;;;;;10.30;95040.00;;;;8264228;28;20568;-79
2022/11/16 16:17:02;;;;;;;46.95;15.82;;;;;10.30;95030.00;;;;8264248;28;20222;-82
2022/11/16 16:21:44;;;;;;;52.45;18.27;;;;;10.20;95043.00;;;;8263865;28;20269;-81
2022/11/16 16:26:17;;;;;;;48.63;16.77;;;;;10.20;95046.00;;;;8263648;28;20218;-79
2022/11/16 16:30:21;;;;;;;45.05;16.23;;;;;10.20;95039.00;;;;8259704;28;20589;-78
2022/11/16 16:34:58;;;;;;;48.15;17.10;;;;;10.10;95032.00;;;;8263424;28;20218;-78
2022/11/16 16:39:03;;;;;;;62.53;19.17;;;;;10.10;95027.00;;;;8263403;28;20223;-78
2022/11/16 16:43:36;;;;;;;55.97;18.02;;;;;10.10;95019.00;;;;8264396;28;20227;-78
2022/11/16 16:47:40;;;;;;;67.03;28.25;;;;;10.20;95027.00;;;;8263147;28;20269;-78
2022/11/16 16:51:43;;;;;;;64.38;19.60;;;;;10.10;95028.00;;;;8262767;28;22944;-78
2022/11/16 16:55:48;;;;;;;109.10;70.97;;;;;10.10;95020.00;;;;8262978;28;20290;-78
2022/11/16 16:59:51;;;;;;;70.85;26.38;;;;;10.00;95026.00;;;;8262495;28;20230;-78
2022/11/16 17:04:25;;;;;;;68.70;24.85;;;;;10.00;95026.00;;;;8261914;28;20222;-78
2022/11/16 17:08:33;;;;;;;66.45;19.58;;;;;10.00;95021.00;;;;8262620;28;20278;-79
2022/11/16 17:13:06;;;;;;;63.08;18.77;;;;;10.00;95009.00;;;;8262056;28;20222;-79
2022/11/16 17:17:09;;;;;;;57.08;19.55;;;;;10.00;95001.00;;;;8261174;28;20636;-79
2022/11/16 17:21:12;;;;;;;61.13;21.13;;;;;10.00;95002.00;;;;8262893;28;20336;-79
2022/11/16 17:25:46;;;;;;;58.90;19.27;;;;;10.00;95005.00;;;;8260838;28;20321;-81
2022/11/16 17:30:24;;;;;;;64.70;19.10;;;;;10.00;95015.00;;;;8261552;28;20223;-84
2022/11/16 17:34:58;;;;;;;56.80;18.42;;;;;10.00;95010.00;;;;8261569;28;20616;-83
2022/11/16 17:39:35;;;;;;;68.38;18.77;;;;;10.00;95016.00;;;;8261784;28;20265;-84
2022/11/16 17:44:12;;;;;;;72.80;19.73;;;;;10.00;95009.00;;;;8261116;28;20716;-84
2022/11/16 17:48:27;;;;;;;72.45;18.92;;;;;10.00;95004.00;;;;8261651;28;20640;-84
2022/11/16 17:53:01;;;;;;;88.07;21.67;;;;;9.90;95003.00;;;;8260735;28;20223;-83
2022/11/16 17:57:37;;;;;;;67.45;19.55;;;;;9.90;95005.00;;;;8262121;28;20222;-84
2022/11/16 18:07:14;;;;;;;86.90;20.63;;;;;9.80;95009.00;;;;8267211;28;20279;-87
2022/11/16 18:11:19;;;;;;;114.68;22.88;;;;;9.80;94993.00;;;;8268289;28;20232;-87
2022/11/16 18:15:27;;;;;;;85.13;20.13;;;;;9.80;94989.00;;;;8267608;28;20222;-86
2022/11/16 18:19:59;;;;;;;239.68;24.05;;;;;9.80;94985.00;;;;8266471;28;20233;-83
2022/11/16 18:24:37;;;;;;;84.75;20.15;;;;;9.70;94986.00;;;;8268732;28;20290;-83
2022/11/16 18:28:41;;;;;;;129.25;20.05;;;;;9.70;94979.00;;;;8267920;28;20684;-83
2022/11/16 18:32:44;;;;;;;72.45;17.77;;;;;9.60;94968.00;;;;8255102;28;20235;-83
2022/11/16 18:37:21;;;;;;;83.83;18.73;;;;;9.60;94961.00;;;;8267637;28;20247;-84
2022/11/16 18:41:57;;;;;;;98.00;19.17;;;;;9.50;94955.00;;;;8266920;28;20281;-84
2022/11/16 18:46:35;;;;;;;113.35;20.73;;;;;9.50;94957.00;;;;8266404;28;20660;-81
2022/11/16 18:50:39;;;;;;;120.80;22.45;;;;;9.50;94960.00;;;;8266569;28;20620;-82
2022/11/16 18:54:42;;;;;;;225.90;27.25;;;;;9.50;94961.00;;;;8267425;28;20227;-81
2022/11/16 18:58:45;;;;;;;311.80;28.88;;;;;9.60;94962.00;;;;8264188;28;20230;-79
2022/11/16 19:02:55;;;;;;;218.25;25.10;;;;;9.50;94942.00;;;;8267758;28;20225;-78
2022/11/16 19:07:31;;;;;;;177.77;24.53;;;;;9.60;94945.00;;;;8266741;28;20230;-78
2022/11/16 19:12:08;;;;;;;332.38;29.85;;;;;9.50;94945.00;;;;8265456;28;20230;-80
2022/11/16 19:16:12;;;;;;;161.82;23.38;;;;;9.50;94933.00;;;;8267027;28;20238;-78
2022/11/16 19:20:46;;;;;;;208.07;25.17;;;;;9.60;94929.00;;;;8266574;28;20218;-78
2022/11/16 19:25:25;;;;;;;173.15;24.30;;;;;9.50;94924.00;;;;8265291;28;20235;-78
2022/11/16 19:29:59;;;;;;;322.33;28.42;;;;;9.50;94920.00;;;;8265685;28;20287;-79
2022/11/16 19:34:03;;;;;;;248.20;29.58;;;;;9.50;94928.00;;;;8264932;28;20277;-78
2022/11/16 19:38:38;;;;;;;467.88;35.47;;;;;9.50;94933.00;;;;8265776;28;20222;-79
2022/11/16 19:43:16;;;;;;;373.10;29.20;;;;;9.50;94947.00;;;;8264965;28;20227;-77
2022/11/16 19:47:55;;;;;;;272.60;27.52;;;;;9.40;94946.00;;;;8265393;28;20727;-79
2022/11/16 19:52:29;;;;;;;352.60;29.15;;;;;9.40;94937.00;;;;8264950;28;20226;-77
2022/11/16 19:57:06;;;;;;;199.55;23.60;;;;;9.40;94923.00;;;;8259886;28;20234;-80
2022/11/16 20:06:42;;;;;;;243.60;25.17;;;;;9.40;94933.00;;;;8264996;28;20265;-80
2022/11/16 20:11:15;;;;;;;367.90;28.73;;;;;9.40;94927.00;;;;8264761;28;20229;-80
2022/11/16 20:15:52;;;;;;;145.05;21.85;;;;;9.40;94922.00;;;;8264425;28;20226;-78
2022/11/16 20:20:29;;;;;;;147.85;20.52;;;;;9.30;94915.00;;;;8264464;28;20222;-79
2022/11/16 20:25:08;;;;;;;138.00;18.52;;;;;9.30;94902.00;;;;8262974;28;20277;-80
2022/11/16 20:29:42;;;;;;;151.03;20.57;;;;;9.30;94908.00;;;;8264049;28;20234;-79
2022/11/16 20:34:20;;;;;;;172.38;20.55;;;;;9.30;94923.00;;;;8263505;28;20222;-79
2022/11/16 20:38:55;;;;;;;217.63;23.40;;;;;9.20;94908.00;;;;8262521;28;20226;-79
2022/11/16 20:43:32;;;;;;;128.65;18.40;;;;;9.20;94925.00;;;;8264108;28;20226;-77
2022/11/16 20:48:09;;;;;;;149.23;18.77;;;;;9.20;94914.00;;;;8262331;28;20623;-78
2022/11/16 20:52:13;;;;;;;153.48;18.67;;;;;9.20;94917.00;;;;8263940;28;20223;-78
2022/11/16 20:56:18;;;;;;;159.38;17.90;;;;;9.30;94920.00;;;;8262661;28;20233;-78
2022/11/16 21:00:23;;;;;;;229.57;22.10;;;;;9.30;94920.00;;;;8262698;28;20230;-80
2022/11/16 21:04:56;;;;;;;191.07;19.92;;;;;9.30;94912.00;;;;8261468;28;20258;-78
2022/11/16 21:09:03;;;;;;;275.98;24.23;;;;;9.20;94913.00;;;;8262881;28;20652;-78
2022/11/16 21:18:14;;;;;;;278.58;20.83;;;;;9.20;94924.00;;;;8263564;28;20309;-79
2022/11/16 21:22:34;;;;;;;315.95;22.70;;;;;9.20;94922.00;;;;8253046;28;20222;-79
2022/11/16 21:27:11;;;;;;;479.85;28.02;;;;;9.20;94919.00;;;;8262682;28;20572;-79
2022/11/16 21:31:49;;;;;;;274.65;20.05;;;;;9.20;94918.00;;;;8262147;28;20226;-83
2022/11/16 21:35:54;;;;;;;391.08;23.27;;;;;9.20;94921.00;;;;8262226;28;20226;-83
2022/11/16 21:39:57;;;;;;;471.00;25.50;;;;;9.20;94927.00;;;;8263173;28;20234;-83
2022/11/16 21:44:40;;;;;;;432.13;25.58;;;;;9.20;94915.00;;;;8262707;28;20222;-83
2022/11/16 21:48:45;;;;;;;454.08;25.25;;;;;9.20;94918.00;;;;8282380;28;20237;-83
2022/11/16 21:53:21;;;;;;;546.33;28.80;;;;;9.20;94929.00;;;;8294941;28;20298;-82
2022/11/16 21:57:24;;;;;;;426.13;24.85;;;;;9.20;94934.00;;;;8294890;28;20217;-82
2022/11/16 22:02:01;;;;;;;487.25;27.08;;;;;9.20;94919.00;;;;8294358;28;20230;-83
2022/11/16 22:11:03;;;;;;;484.83;27.15;;;;;9.10;94916.00;;;;8293975;28;20230;-83
2022/11/16 22:15:08;;;;;;;335.63;22.83;;;;;9.00;94902.00;;;;8295020;28;20725;-82
2022/11/16 22:19:36;;;;;;;471.30;26.65;;;;;9.00;94889.00;;;;8294265;28;20571;-82
2022/11/16 22:23:39;;;;;;;366.95;22.38;;;;;9.00;94872.00;;;;8294794;28;20264;-82
2022/11/16 22:27:47;;;;;;;276.60;21.08;;;;;9.00;94876.00;;;;8294594;28;20233;-82
2022/11/16 22:32:19;;;;;;;509.40;29.50;;;;;9.00;94872.00;;;;8295298;28;20728;-82
2022/11/16 22:36:22;;;;;;;452.48;27.60;;;;;9.00;94875.00;;;;8294388;28;20676;-80
2022/11/16 22:40:25;;;;;;;285.00;22.57;;;;;9.00;94872.00;;;;8294882;28;20230;-82